createdAt,value
2019-02-25T09:34:01.072Z,28.29
2019-02-25T09:36:32.319Z,28.56
2019-02-25T09:39:04.424Z,28.49
2019-02-25T09:41:36.003Z,28.68
2019-02-25T09:44:07.205Z,28.31
2019-02-25T09:46:39.387Z,28.52
2019-02-25T09:49:10.751Z,28.46
2019-02-25T09:51:41.943Z,27.93
2019-02-25T09:54:13.243Z,27.22
2019-02-25T09:56:44.421Z,26.87
2019-02-25T09:59:15.636Z,26.91
2019-02-25T10:01:46.805Z,26.90
2019-02-25T10:04:18.195Z,26.98
2019-02-25T10:06:49.400Z,27.03
2019-02-25T10:09:29.485Z,27.03
2019-02-25T10:11:53.578Z,27.09
2019-02-25T10:14:24.798Z,27.15
2019-02-25T10:16:56.020Z,27.20
2019-02-25T10:19:27.311Z,27.24
2019-02-25T10:21:58.510Z,27.41
2019-02-25T10:24:29.737Z,27.49
2019-02-25T10:27:01.002Z,27.40
2019-02-25T10:29:32.332Z,27.35
2019-02-25T10:32:04.872Z,27.36
2019-02-25T10:34:36.575Z,27.47
2019-02-25T10:37:08.958Z,27.66
2019-02-25T10:39:41.285Z,27.60
2019-02-25T10:42:13.647Z,27.70
2019-02-25T10:44:44.919Z,27.81
2019-02-25T10:47:17.817Z,27.98
2019-02-25T10:49:49.012Z,27.88
2019-02-25T10:52:20.212Z,27.89
2019-02-25T10:54:52.447Z,27.91
2019-02-25T10:57:26.607Z,28.03
2019-02-25T10:59:57.325Z,27.94
2019-02-25T11:02:28.537Z,28.03
2019-02-25T11:05:00.348Z,28.12
2019-02-25T11:07:32.833Z,28.13
2019-02-25T11:10:08.249Z,28.29
2019-02-25T11:12:40.522Z,28.23
2019-02-25T11:15:13.834Z,28.02
2019-02-25T11:17:45.850Z,28.02
2019-02-25T11:20:18.293Z,27.91
2019-02-25T11:22:49.491Z,28.25
2019-02-25T11:25:21.527Z,28.12
2019-02-25T11:27:53.613Z,28.15
2019-02-25T11:30:24.859Z,28.27
2019-02-25T11:32:57.842Z,28.11
2019-02-25T11:35:28.952Z,28.01
2019-02-25T11:38:01.682Z,27.99
2019-02-25T11:40:34.101Z,28.27
2019-02-25T11:43:05.870Z,28.01
2019-02-25T11:45:37.060Z,27.81
2019-02-25T11:48:08.245Z,27.95
2019-02-25T11:50:39.442Z,27.87
2019-02-25T11:53:10.626Z,27.79
2019-02-25T11:55:41.832Z,27.89
2019-02-25T11:58:13.054Z,27.71
2019-02-25T12:00:44.256Z,27.33
2019-02-25T12:03:15.439Z,27.13
2019-02-25T12:05:46.721Z,26.86
2019-02-25T12:08:17.949Z,27.03
2019-02-25T12:10:49.166Z,27.15
2019-02-25T12:13:20.359Z,26.98
2019-02-25T12:15:51.563Z,27.10
2019-02-25T12:18:22.741Z,26.84
2019-02-25T12:20:53.931Z,26.68
2019-02-25T12:23:25.109Z,26.64
2019-02-25T12:25:56.355Z,26.49
2019-02-25T12:28:27.571Z,26.66
2019-02-25T12:30:59.810Z,26.69
2019-02-25T12:33:30.994Z,26.72
2019-02-25T12:36:02.188Z,26.63
2019-02-25T12:38:33.385Z,26.66
2019-02-25T12:41:04.691Z,26.08
2019-02-25T12:43:35.821Z,25.77
2019-02-25T12:46:06.989Z,25.61
2019-02-25T12:48:38.207Z,25.44
2019-02-25T12:51:09.472Z,25.52
2019-02-25T12:53:40.653Z,25.29
2019-02-25T12:56:12.873Z,25.19
2019-02-25T12:58:44.104Z,25.36
2019-02-25T13:01:15.353Z,25.30
2019-02-25T13:03:47.585Z,25.27
2019-02-25T13:06:19.799Z,25.22
2019-02-25T13:08:50.980Z,25.54
2019-02-25T13:11:22.217Z,25.50
2019-02-25T13:13:53.578Z,25.60
2019-02-25T13:16:24.751Z,25.67
2019-02-25T13:18:55.923Z,25.63
2019-02-25T13:21:27.140Z,25.66
2019-02-25T13:23:59.432Z,25.67
2019-02-25T13:26:31.667Z,25.80
2019-02-25T13:29:04.246Z,26.66
2019-02-25T13:31:35.458Z,26.65
2019-02-25T13:34:06.670Z,27.27
2019-02-25T13:36:37.969Z,27.48
2019-02-25T13:39:09.148Z,27.58
2019-02-25T13:41:40.571Z,26.98
2019-02-25T13:44:11.771Z,26.83
2019-02-25T13:46:42.993Z,26.81
2019-02-25T13:49:14.243Z,26.51
2019-02-25T13:51:45.464Z,26.37
2019-02-25T13:54:16.688Z,26.38
2019-02-25T13:56:47.999Z,26.36
2019-02-25T13:59:19.360Z,26.15
2019-02-25T14:01:50.668Z,26.19
2019-02-25T14:04:21.977Z,26.23
2019-02-25T14:06:53.952Z,26.31
2019-02-25T14:09:25.115Z,26.20
2019-02-25T14:11:56.448Z,26.23
2019-02-25T14:14:27.704Z,26.17
2019-02-25T14:16:58.921Z,26.27
2019-02-25T14:19:30.133Z,26.92
2019-02-25T14:22:01.382Z,26.96
2019-02-25T14:24:32.776Z,27.12
2019-02-25T14:27:04.072Z,27.27
2019-02-25T14:29:35.304Z,27.41
2019-02-25T14:32:06.746Z,27.53
2019-02-25T14:34:38.591Z,27.51
2019-02-25T14:37:11.017Z,27.70
2019-02-25T14:39:43.292Z,27.81
2019-02-25T14:42:16.533Z,27.75
2019-02-25T14:44:50.015Z,27.95
2019-02-25T14:47:23.407Z,27.89
2019-02-25T14:49:53.468Z,27.95
2019-02-25T14:52:26.715Z,27.89
2019-02-25T14:54:57.750Z,27.98
2019-02-25T14:57:30.738Z,27.70
2019-02-25T15:00:01.923Z,27.52
2019-02-25T15:02:33.244Z,27.42
2019-02-25T15:05:05.666Z,27.21
2019-02-25T15:07:36.890Z,27.28
2019-02-25T15:10:10.997Z,27.05
2019-02-25T15:12:42.402Z,27.12
2019-02-25T15:15:15.611Z,27.18
2019-02-25T15:17:48.226Z,27.00
2019-02-25T15:20:22.819Z,27.13
2019-02-25T15:22:53.960Z,27.11
2019-02-25T15:25:25.154Z,26.99
2019-02-25T15:27:56.361Z,27.02
2019-02-25T15:30:30.768Z,27.25
2019-02-25T15:33:01.595Z,27.26
2019-02-25T15:35:35.134Z,27.21
2019-02-25T15:38:05.876Z,27.21
2019-02-25T15:40:37.125Z,27.17
2019-02-25T15:43:13.242Z,27.01
2019-02-25T15:45:43.761Z,26.91
2019-02-25T15:48:17.534Z,26.88
2019-02-25T15:50:53.038Z,26.72
2019-02-25T15:53:24.268Z,26.85
2019-02-25T15:55:59.243Z,26.81
2019-02-25T15:58:28.452Z,26.88
2019-02-25T16:00:59.758Z,26.95
2019-02-25T16:03:32.200Z,26.98
2019-02-25T16:06:05.797Z,26.98
2019-02-25T16:08:37.266Z,27.00
2019-02-25T16:11:08.592Z,26.96
2019-02-25T16:13:39.823Z,27.28
2019-02-25T16:16:11.013Z,27.62
2019-02-25T16:18:44.033Z,27.29
2019-02-25T16:21:15.350Z,27.68
2019-02-25T16:23:46.607Z,27.55
2019-02-25T16:26:19.598Z,27.55
2019-02-25T16:28:53.183Z,27.61
2019-02-25T16:31:26.522Z,27.40
2019-02-25T16:33:57.966Z,27.37
2019-02-25T16:36:31.101Z,27.20
2019-02-25T16:39:05.401Z,27.36
2019-02-25T16:41:40.990Z,27.40
2019-02-25T16:44:12.122Z,27.41
2019-02-25T16:46:44.461Z,27.32
2019-02-25T16:49:16.256Z,27.55
2019-02-25T16:51:47.477Z,27.83
2019-02-25T16:54:20.626Z,27.62
2019-02-25T16:56:51.729Z,27.59
2019-02-25T16:59:24.944Z,27.49
2019-02-25T17:01:58.065Z,27.65
2019-02-25T17:04:31.833Z,27.50
2019-02-25T17:07:03.108Z,27.71
2019-02-25T17:09:37.055Z,27.60
2019-02-25T17:12:08.888Z,27.35
2019-02-25T17:14:40.959Z,27.17
2019-02-25T17:17:13.241Z,27.02
2019-02-25T17:19:44.481Z,27.14
2019-02-25T17:22:15.668Z,26.96
2019-02-25T17:24:46.925Z,26.86
2019-02-25T17:27:18.167Z,26.80
2019-02-25T17:29:50.850Z,26.82
2019-02-25T17:32:25.366Z,26.74
2019-02-25T17:34:58.255Z,27.09
2019-02-25T17:37:31.352Z,27.03
2019-02-25T17:40:04.410Z,27.17
2019-02-25T17:42:35.348Z,27.39
2019-02-25T17:45:10.068Z,27.48
2019-02-25T17:47:41.922Z,27.72
2019-02-25T17:50:16.687Z,27.68
2019-02-25T17:52:47.943Z,27.62
2019-02-25T17:55:21.445Z,27.37
2019-02-25T17:57:54.332Z,27.38
2019-02-25T18:00:35.015Z,27.29
2019-02-25T18:03:07.111Z,27.35
2019-02-25T18:05:40.557Z,27.46
2019-02-25T18:08:13.311Z,27.21
2019-02-25T18:10:45.572Z,27.14
2019-02-25T18:13:17.730Z,27.05
2019-02-25T18:15:51.356Z,26.61
2019-02-25T18:18:24.410Z,26.38
2019-02-25T18:20:55.163Z,26.21
2019-02-25T18:23:26.337Z,26.04
2019-02-25T18:25:58.815Z,25.76
2019-02-25T18:28:30.109Z,25.71
2019-02-25T18:31:01.771Z,25.69
2019-02-25T18:33:34.672Z,25.65
2019-02-25T18:36:07.128Z,25.39
2019-02-25T18:38:39.023Z,25.30
2019-02-25T18:41:10.235Z,25.12
2019-02-25T18:43:42.937Z,25.08
2019-02-25T18:46:14.329Z,25.18
2019-02-25T18:48:46.752Z,25.01
2019-02-25T18:51:18.546Z,24.89
2019-02-25T18:53:49.862Z,24.74
2019-02-25T18:56:22.705Z,24.75
2019-02-25T18:59:07.118Z,24.89
2019-02-25T19:01:26.858Z,24.83
2019-02-25T19:03:59.065Z,24.77
2019-02-25T19:06:30.735Z,24.75
2019-02-25T19:09:03.679Z,24.68
2019-02-25T19:11:36.522Z,24.77
2019-02-25T19:14:08.740Z,24.69
2019-02-25T19:16:40.535Z,24.57
2019-02-25T19:19:14.330Z,24.55
2019-02-25T19:21:47.781Z,24.49
2019-02-25T19:24:18.779Z,24.52
2019-02-25T19:26:50.346Z,24.43
2019-02-25T19:29:23.649Z,24.37
2019-02-25T19:31:56.445Z,24.38
2019-02-25T19:34:28.371Z,24.36
2019-02-25T19:37:02.242Z,24.34
2019-02-25T19:39:33.633Z,24.29
2019-02-25T19:42:05.648Z,24.25
2019-02-25T19:44:38.155Z,24.24
2019-02-25T19:47:11.589Z,24.22
2019-02-25T19:49:43.638Z,24.24
2019-02-25T19:52:16.806Z,24.24
2019-02-25T19:54:48.879Z,24.22
2019-02-25T19:57:23.232Z,24.18
2019-02-25T19:59:56.159Z,24.20
2019-02-25T20:02:27.698Z,24.19
2019-02-25T20:04:59.703Z,24.19
2019-02-25T20:07:32.944Z,24.23
2019-02-25T20:10:05.418Z,24.23
2019-02-25T20:12:40.103Z,24.24
2019-02-25T20:15:18.292Z,24.27
2019-02-25T20:17:50.669Z,24.15
2019-02-25T20:20:22.328Z,24.10
2019-02-25T20:22:53.525Z,24.11
2019-02-25T20:25:26.588Z,24.19
2019-02-25T20:27:59.834Z,24.18
2019-02-25T20:30:30.692Z,24.32
2019-02-25T20:33:03.845Z,24.17
2019-02-25T20:35:34.770Z,24.17
2019-02-25T20:38:06.005Z,24.21
2019-02-25T20:40:37.162Z,24.31
2019-02-25T20:43:08.358Z,24.48
2019-02-25T20:45:39.823Z,24.63
2019-02-25T20:48:11.099Z,24.69
2019-02-25T20:50:42.288Z,24.79
2019-02-25T20:53:14.482Z,24.83
2019-02-25T20:55:45.633Z,24.87
2019-02-25T20:58:18.628Z,25.13
2019-02-25T21:00:50.909Z,25.11
2019-02-25T21:03:24.879Z,25.18
2019-02-25T21:05:55.896Z,25.28
2019-02-25T21:08:28.177Z,25.29
2019-02-25T21:11:01.531Z,25.35
2019-02-25T21:13:33.559Z,25.41
2019-02-25T21:16:07.487Z,25.42
2019-02-25T21:18:38.113Z,25.53
2019-02-25T21:21:11.296Z,25.62
2019-02-25T21:23:42.204Z,25.66
2019-02-25T21:26:13.383Z,25.71
2019-02-25T21:28:44.571Z,25.73
2019-02-25T21:31:17.363Z,25.84
2019-02-25T21:33:50.089Z,25.86
2019-02-25T21:36:21.560Z,25.93
2019-02-25T21:38:53.962Z,25.89
2019-02-25T21:41:25.643Z,25.96
2019-02-25T21:43:59.106Z,26.04
2019-02-25T21:46:31.599Z,26.05
2019-02-25T21:49:04.041Z,26.10
2019-02-25T21:51:36.878Z,26.20
2019-02-25T21:54:08.994Z,26.34
2019-02-25T21:56:40.184Z,26.20
2019-02-25T21:59:13.163Z,26.30
2019-02-25T22:01:45.248Z,26.32
2019-02-25T22:04:18.582Z,26.32
2019-02-25T22:06:51.276Z,26.35
2019-02-25T22:09:36.061Z,26.31
2019-02-25T22:11:56.297Z,26.38
2019-02-25T22:14:27.594Z,26.45
2019-02-25T22:16:59.396Z,26.44
2019-02-25T22:19:32.468Z,26.51
2019-02-25T22:22:05.308Z,26.53
2019-02-25T22:24:38.883Z,26.56
2019-02-25T22:27:11.833Z,26.59
2019-02-25T22:29:43.539Z,26.64
2019-02-25T22:32:15.805Z,26.72
2019-02-25T22:34:46.913Z,26.66
2019-02-25T22:37:19.927Z,26.71
2019-02-25T22:39:52.619Z,26.67
2019-02-25T22:42:25.263Z,26.78
2019-02-25T22:44:56.440Z,26.78
2019-02-25T22:47:27.517Z,26.81
2019-02-25T22:49:58.625Z,26.88
2019-02-25T22:52:31.504Z,26.86
2019-02-25T22:55:05.918Z,26.87
2019-02-25T22:57:35.212Z,26.94
2019-02-25T23:00:30.161Z,26.90
2019-02-25T23:03:03.047Z,26.95
2019-02-25T23:05:34.243Z,26.91
2019-02-25T23:08:09.024Z,26.94
2019-02-25T23:10:41.793Z,27.04
2019-02-25T23:13:10.850Z,27.08
2019-02-25T23:15:44.717Z,27.10
2019-02-25T23:18:16.857Z,27.11
2019-02-25T23:20:48.240Z,27.08
2019-02-25T23:23:21.283Z,27.09
2019-02-25T23:25:54.129Z,27.09
2019-02-25T23:28:26.156Z,27.09
2019-02-25T23:30:57.880Z,27.14
2019-02-25T23:33:31.934Z,27.14
2019-02-25T23:36:03.017Z,27.16
2019-02-25T23:38:34.053Z,27.15
2019-02-25T23:41:05.875Z,27.19
2019-02-25T23:43:39.821Z,27.28
2019-02-25T23:46:11.713Z,27.27
2019-02-25T23:48:44.611Z,27.26
2019-02-25T23:51:17.258Z,27.31
2019-02-25T23:53:49.188Z,27.29
2019-02-25T23:56:22.809Z,27.37
2019-02-25T23:58:54.103Z,27.42
